Time;durP1;ratioP1;P1;durP2;ratioP2;P2;SDS_P1;SDS_P2;PMS_P1;PMS_P2;Temp;Humidity;BMP_temperature;BMP_pressure;BME280_temperature;BME280_humidity;BME280_pressure;Samples;Min_cycle;Max_cycle;Signal;HPM_P1;HPM_P2
2022/06/04 00:00:31;;;;;;;3.53;2.50;;;24.90;50.60;;;;;;5024496;28;20473;-86
2022/06/04 00:02:57;;;;;;;2.23;2.00;;;24.90;50.60;;;;;;5025869;28;20408;-86
2022/06/04 00:05:27;;;;;;;4.90;2.50;;;25.00;50.70;;;;;;5025819;28;20414;-86
2022/06/04 00:07:54;;;;;;;2.33;1.80;;;24.90;50.60;;;;;;5025317;28;20192;-86
2022/06/04 00:16:03;;;;;;;3.40;2.10;;;24.90;50.60;;;;;;5006495;28;20479;-86
2022/06/04 00:18:29;;;;;;;2.67;2.10;;;24.90;50.60;;;;;;5009199;28;20456;-86
2022/06/04 00:20:55;;;;;;;3.30;2.53;;;24.90;50.60;;;;;;5046004;28;20409;-86
2022/06/04 00:23:22;;;;;;;4.80;1.90;;;24.90;50.60;;;;;;5045766;28;20227;-86
2022/06/04 00:25:51;;;;;;;3.77;2.27;;;24.90;50.60;;;;;;5045480;28;20793;-86
2022/06/04 00:28:19;;;;;;;5.20;3.43;;;24.90;50.70;;;;;;5044970;28;20433;-86
2022/06/04 00:30:46;;;;;;;2.10;1.90;;;24.90;50.60;;;;;;5044712;28;20419;-86
2022/06/04 00:33:12;;;;;;;2.73;1.93;;;24.90;50.60;;;;;;5029521;28;20430;-86
2022/06/04 00:35:39;;;;;;;2.90;2.60;;;24.90;50.70;;;;;;5027837;28;20462;-86
2022/06/04 00:38:07;;;;;;;4.27;2.73;;;24.90;50.70;;;;;;5029389;28;20542;-86
2022/06/04 00:40:58;;;;;;;2.87;2.13;;;24.90;50.70;;;;;;5028621;28;20416;-86
2022/06/04 00:43:25;;;;;;;2.50;1.70;;;24.90;50.60;;;;;;5028819;28;20430;-86
2022/06/04 00:46:09;;;;;;;2.03;1.60;;;24.90;50.70;;;;;;5028860;28;20423;-86
2022/06/04 00:48:35;;;;;;;2.07;1.80;;;24.90;50.70;;;;;;5044528;28;20426;-86
2022/06/04 00:51:03;;;;;;;2.30;1.73;;;24.90;50.70;;;;;;5028894;28;20877;-86
2022/06/04 00:53:30;;;;;;;3.43;2.17;;;24.90;50.70;;;;;;5025346;28;20432;-86
2022/06/04 00:56:15;;;;;;;3.33;2.30;;;25.00;50.80;;;;;;5027826;28;20434;-86
2022/06/04 00:59:15;;;;;;;3.00;1.70;;;24.90;50.70;;;;;;5019559;28;20462;-86
2022/06/04 01:02:03;;;;;;;3.40;1.93;;;24.90;50.70;;;;;;5026433;28;20411;-86
2022/06/04 01:04:48;;;;;;;2.40;2.00;;;24.90;50.70;;;;;;5034011;28;20419;-86
2022/06/04 01:07:32;;;;;;;1.83;1.67;;;24.90;50.70;;;;;;5024883;28;20829;-86
2022/06/04 01:10:13;;;;;;;2.50;1.77;;;24.90;50.70;;;;;;5057578;28;20423;-86
2022/06/04 01:13:04;;;;;;;3.30;1.93;;;24.90;50.80;;;;;;5027555;28;20964;-86
2022/06/04 01:15:44;;;;;;;3.87;2.80;;;24.90;50.70;;;;;;5027831;28;20422;-86
2022/06/04 01:18:27;;;;;;;3.53;1.80;;;24.90;50.70;;;;;;5038981;28;20554;-87
2022/06/04 01:21:25;;;;;;;2.23;2.03;;;24.90;50.70;;;;;;5026865;28;20411;-86
2022/06/04 01:24:13;;;;;;;3.33;2.10;;;24.90;50.70;;;;;;5014845;28;20416;-86
2022/06/04 01:27:30;;;;;;;2.03;1.70;;;24.90;50.70;;;;;;5051326;28;20419;-86
2022/06/04 01:30:04;;;;;;;2.13;1.93;;;24.90;50.70;;;;;;4993713;28;20445;-86
2022/06/04 01:32:44;;;;;;;2.87;1.90;;;24.90;50.80;;;;;;5026502;28;20447;-86
2022/06/04 01:35:29;;;;;;;2.57;2.20;;;24.90;50.80;;;;;;5026288;28;20421;-86
2022/06/04 01:38:10;;;;;;;2.83;1.93;;;24.90;50.80;;;;;;5026858;28;20482;-86
2022/06/04 01:43:28;;;;;;;4.37;1.90;;;24.90;50.70;;;;;;5027737;28;20387;-86
2022/06/04 01:46:02;;;;;;;1.57;1.47;;;24.90;50.70;;;;;;5026391;28;20426;-86
2022/06/04 01:48:31;;;;;;;2.30;2.03;;;24.90;50.70;;;;;;5027269;28;20406;-86
2022/06/04 01:50:59;;;;;;;3.37;2.23;;;24.90;50.70;;;;;;5043376;28;20420;-86
2022/06/04 01:53:31;;;;;;;2.60;2.00;;;24.90;50.70;;;;;;5027966;28;20462;-86
2022/06/04 01:56:04;;;;;;;3.47;2.00;;;24.90;50.70;;;;;;5027546;28;20812;-86
2022/06/04 01:58:43;;;;;;;2.40;1.87;;;24.90;50.70;;;;;;5043130;28;20458;-86
2022/06/04 02:01:14;;;;;;;2.40;1.83;;;24.90;50.70;;;;;;5027954;28;20391;-86
2022/06/04 02:03:44;;;;;;;3.00;2.30;;;24.90;50.70;;;;;;5042993;28;20412;-86
2022/06/04 02:06:14;;;;;;;2.50;1.80;;;24.90;50.70;;;;;;5028009;28;20415;-86
2022/06/04 02:08:46;;;;;;;2.90;2.10;;;24.90;50.70;;;;;;5043300;28;20415;-86
2022/06/04 02:11:16;;;;;;;2.73;2.00;;;24.90;50.70;;;;;;5026293;28;20415;-86
2022/06/04 02:13:44;;;;;;;1.40;1.30;;;24.90;50.70;;;;;;5026480;28;20423;-86
2022/06/04 02:16:20;;;;;;;2.53;2.00;;;24.90;50.70;;;;;;5027283;28;20411;-86
2022/06/04 02:18:47;;;;;;;3.03;1.67;;;24.90;50.70;;;;;;5042755;28;20460;-86
2022/06/04 02:21:15;;;;;;;2.03;1.50;;;24.90;50.70;;;;;;5027643;28;20408;-86
2022/06/04 02:23:43;;;;;;;2.77;1.80;;;24.90;50.70;;;;;;5027232;28;20416;-86
2022/06/04 02:26:09;;;;;;;4.87;1.80;;;24.90;50.70;;;;;;5027413;28;20408;-86
2022/06/04 02:28:36;;;;;;;2.20;1.80;;;24.90;50.70;;;;;;5026005;28;20791;-86
2022/06/04 02:31:29;;;;;;;1.93;1.60;;;24.90;50.60;;;;;;5026157;28;20407;-86
2022/06/04 02:34:23;;;;;;;1.90;1.70;;;24.90;50.70;;;;;;5027243;28;20787;-86
2022/06/04 02:36:56;;;;;;;1.93;1.70;;;24.90;50.70;;;;;;5027205;28;20396;-86
2022/06/04 02:39:45;;;;;;;2.87;1.77;;;24.90;50.70;;;;;;5041591;28;20420;-86
2022/06/04 02:42:43;;;;;;;2.90;1.83;;;24.90;50.70;;;;;;5025626;28;20948;-86
2022/06/04 02:45:22;;;;;;;1.80;1.60;;;24.90;50.70;;;;;;5026937;28;20462;-86
2022/06/04 02:48:17;;;;;;;3.10;1.97;;;24.90;50.70;;;;;;5026876;28;20422;-86
2022/06/04 02:50:55;;;;;;;4.30;2.00;;;24.90;50.70;;;;;;5024409;28;21019;-86
2022/06/04 02:53:21;;;;;;;2.10;1.90;;;24.90;50.70;;;;;;5025675;28;20418;-86
2022/06/04 02:56:16;;;;;;;2.60;2.03;;;24.90;50.70;;;;;;5027516;28;20802;-86
2022/06/04 02:58:46;;;;;;;1.87;1.47;;;24.90;50.70;;;;;;5023653;28;20451;-86
2022/06/04 03:01:13;;;;;;;3.03;2.00;;;24.90;50.80;;;;;;5026847;28;20402;-86
2022/06/04 03:03:40;;;;;;;2.97;1.87;;;24.90;51.30;;;;;;5041439;28;20816;-86
2022/06/04 03:06:19;;;;;;;2.27;1.77;;;24.90;50.70;;;;;;5027138;28;20466;-86
2022/06/04 03:08:45;;;;;;;2.50;1.70;;;24.90;50.70;;;;;;5025884;28;20491;-86
2022/06/04 03:11:11;;;;;;;3.93;1.60;;;24.90;50.70;;;;;;5043138;28;20415;-86
2022/06/04 03:13:37;;;;;;;2.83;2.50;;;24.90;50.70;;;;;;5024929;28;20423;-86
2022/06/04 03:16:03;;;;;;;2.60;2.23;;;24.90;50.70;;;;;;5025198;28;20638;-87
2022/06/04 03:18:29;;;;;;;2.50;2.30;;;24.90;50.70;;;;;;5041393;28;20203;-86
2022/06/04 03:20:54;;;;;;;2.80;2.03;;;24.90;50.70;;;;;;5024832;28;20419;-86
2022/06/04 03:23:20;;;;;;;2.77;1.63;;;24.90;50.70;;;;;;5024366;28;20176;-86
2022/06/04 03:25:46;;;;;;;2.93;1.63;;;24.90;50.70;;;;;;5042818;28;20267;-86
2022/06/04 03:28:12;;;;;;;2.27;1.60;;;25.00;50.80;;;;;;5026321;28;20230;-86
2022/06/04 03:30:39;;;;;;;2.00;1.70;;;24.90;50.70;;;;;;5024992;28;20180;-86
2022/06/04 03:33:05;;;;;;;2.07;1.70;;;24.90;50.70;;;;;;5025147;28;20219;-86
2022/06/04 03:35:31;;;;;;;2.50;1.73;;;24.90;50.70;;;;;;5028620;28;20533;-86
2022/06/04 03:37:57;;;;;;;2.93;2.13;;;24.90;50.70;;;;;;5045206;28;20501;-86
2022/06/04 03:40:23;;;;;;;2.23;1.70;;;24.90;50.70;;;;;;5045387;28;20421;-86
2022/06/04 03:42:49;;;;;;;2.60;1.90;;;24.90;50.70;;;;;;5040901;28;20188;-86
2022/06/04 03:45:15;;;;;;;2.13;1.73;;;24.90;50.70;;;;;;5025771;28;20419;-86
2022/06/04 03:47:41;;;;;;;1.70;1.50;;;24.90;50.70;;;;;;5026297;28;20180;-86
2022/06/04 03:50:11;;;;;;;1.93;1.67;;;24.90;50.70;;;;;;5026300;28;20422;-86
2022/06/04 03:52:37;;;;;;;1.60;1.50;;;24.90;50.70;;;;;;5025117;28;20450;-86
2022/06/04 03:55:03;;;;;;;2.30;1.50;;;24.90;50.70;;;;;;5024792;28;20454;-86
2022/06/04 03:57:38;;;;;;;1.90;1.60;;;24.90;50.70;;;;;;5024427;28;20538;-86
2022/06/04 04:00:06;;;;;;;2.50;1.70;;;24.90;50.70;;;;;;5025749;28;20897;-86
2022/06/04 04:02:33;;;;;;;1.67;1.37;;;24.90;50.70;;;;;;5040856;28;20951;-86
2022/06/04 04:04:59;;;;;;;2.03;1.70;;;24.90;50.70;;;;;;5026903;28;20423;-86
2022/06/04 04:07:25;;;;;;;3.23;1.37;;;24.90;50.70;;;;;;5061662;28;20414;-86
2022/06/04 04:09:51;;;;;;;2.20;1.53;;;25.00;50.80;;;;;;5041552;28;20423;-86
2022/06/04 04:12:16;;;;;;;2.47;1.90;;;24.90;50.70;;;;;;5009935;28;20169;-87
2022/06/04 04:14:42;;;;;;;2.20;2.00;;;25.00;50.80;;;;;;5008162;28;20613;-86
2022/06/04 04:17:09;;;;;;;2.40;1.63;;;24.90;50.80;;;;;;5009852;28;20173;-86
2022/06/04 04:19:35;;;;;;;2.57;1.63;;;24.90;50.70;;;;;;5024829;28;20450;-86
2022/06/04 04:22:01;;;;;;;1.80;1.50;;;25.00;50.80;;;;;;5009930;28;20902;-86
2022/06/04 04:24:26;;;;;;;1.90;1.70;;;25.00;50.80;;;;;;5008479;28;20430;-86
2022/06/04 04:26:53;;;;;;;2.53;1.90;;;25.00;50.70;;;;;;5009254;28;20177;-86
2022/06/04 04:29:18;;;;;;;2.53;1.50;;;25.00;50.70;;;;;;5041137;28;20203;-86
2022/06/04 04:31:44;;;;;;;2.97;2.13;;;25.00;50.80;;;;;;5008905;28;20483;-86
2022/06/04 04:34:10;;;;;;;2.00;1.70;;;24.90;50.70;;;;;;5010203;28;20240;-86
2022/06/04 04:36:36;;;;;;;2.17;1.57;;;24.90;50.70;;;;;;5041388;28;20451;-86
2022/06/04 04:39:02;;;;;;;2.70;1.80;;;24.90;50.70;;;;;;5010231;28;20193;-86
2022/06/04 04:41:28;;;;;;;1.93;1.60;;;24.90;50.70;;;;;;5008123;28;20173;-86
2022/06/04 04:43:54;;;;;;;1.70;1.60;;;24.90;50.70;;;;;;5008894;28;20442;-86
2022/06/04 04:46:20;;;;;;;2.10;1.73;;;25.00;50.80;;;;;;5008074;28;20176;-86
2022/06/04 04:48:47;;;;;;;1.60;1.37;;;25.00;50.80;;;;;;5052736;28;20199;-86
2022/06/04 04:51:19;;;;;;;2.73;1.47;;;24.90;50.70;;;;;;5027785;28;20474;-85
2022/06/04 04:53:47;;;;;;;2.20;1.87;;;25.00;50.80;;;;;;5028773;28;20513;-86
2022/06/04 04:56:17;;;;;;;1.60;1.50;;;25.00;50.80;;;;;;5029277;28;20418;-86
2022/06/04 04:58:43;;;;;;;1.50;1.33;;;25.00;50.80;;;;;;5028277;28;21026;-86
2022/06/04 05:01:30;;;;;;;1.50;1.30;;;25.00;50.90;;;;;;5028561;28;20414;-86
2022/06/04 05:03:56;;;;;;;2.43;1.50;;;25.00;50.80;;;;;;5028415;28;20427;-86
2022/06/04 05:06:22;;;;;;;1.70;1.20;;;25.00;50.90;;;;;;5046808;28;20434;-86
2022/06/04 05:08:52;;;;;;;1.57;1.47;;;25.00;50.90;;;;;;5034694;28;20427;-86
2022/06/04 05:11:22;;;;;;;2.33;1.60;;;25.00;50.90;;;;;;5028037;28;20419;-86
2022/06/04 05:13:50;;;;;;;2.23;1.80;;;25.00;50.90;;;;;;5027032;28;20427;-86
2022/06/04 05:16:20;;;;;;;2.90;1.70;;;25.00;50.90;;;;;;5022149;28;20435;-86
2022/06/04 05:18:47;;;;;;;1.93;1.67;;;25.00;50.90;;;;;;5028062;28;20459;-86
2022/06/04 05:21:19;;;;;;;1.83;1.43;;;25.00;50.90;;;;;;5042425;28;20423;-85
2022/06/04 05:23:44;;;;;;;2.20;2.00;;;25.00;50.90;;;;;;5064229;28;20427;-86
2022/06/04 05:26:10;;;;;;;2.40;1.73;;;25.00;50.90;;;;;;5047934;28;20447;-86
2022/06/04 05:28:36;;;;;;;2.80;2.20;;;25.00;50.90;;;;;;5048078;28;20180;-86
2022/06/04 05:31:03;;;;;;;1.90;1.40;;;25.00;50.90;;;;;;5029793;28;20419;-86
2022/06/04 05:33:29;;;;;;;2.63;1.70;;;25.00;50.90;;;;;;5060786;28;20873;-86
2022/06/04 05:35:55;;;;;;;1.60;1.43;;;25.00;50.80;;;;;;5028620;28;20184;-86
2022/06/04 05:38:21;;;;;;;2.27;1.70;;;25.00;50.90;;;;;;5027771;28;20446;-86
2022/06/04 05:40:47;;;;;;;1.87;1.70;;;25.00;50.90;;;;;;5035057;28;20199;-86
2022/06/04 05:43:13;;;;;;;1.83;1.57;;;25.00;50.90;;;;;;5048096;28;20440;-86
2022/06/04 05:45:38;;;;;;;2.30;1.80;;;25.00;50.90;;;;;;5047144;28;20172;-86
2022/06/04 05:48:04;;;;;;;2.27;1.73;;;25.00;50.90;;;;;;5064569;28;20188;-86
2022/06/04 05:50:30;;;;;;;1.90;1.63;;;25.00;50.90;;;;;;5063738;28;20225;-86
2022/06/04 05:52:56;;;;;;;3.13;1.50;;;25.10;50.90;;;;;;5048222;28;20921;-86
2022/06/04 05:55:22;;;;;;;1.83;1.73;;;25.00;50.80;;;;;;5047887;28;20501;-86
2022/06/04 05:57:48;;;;;;;1.93;1.70;;;25.10;50.90;;;;;;5034498;28;20252;-86
2022/06/04 06:00:14;;;;;;;2.00;1.60;;;25.10;50.90;;;;;;5027935;28;20197;-86
2022/06/04 06:02:40;;;;;;;2.33;1.50;;;25.00;50.80;;;;;;5027077;28;20415;-86
2022/06/04 06:05:06;;;;;;;2.07;1.43;;;25.10;50.90;;;;;;5026362;28;20488;-86
2022/06/04 06:07:32;;;;;;;2.10;1.60;;;25.00;50.80;;;;;;5059538;28;20427;-86
2022/06/04 06:09:58;;;;;;;2.40;1.80;;;25.10;50.90;;;;;;5018676;28;20430;-86
2022/06/04 06:12:24;;;;;;;2.63;1.87;;;25.00;50.90;;;;;;5028563;28;20423;-85
2022/06/04 06:14:50;;;;;;;2.17;1.60;;;25.10;50.90;;;;;;5034761;28;20894;-86
2022/06/04 06:17:16;;;;;;;2.00;1.60;;;25.10;50.90;;;;;;5026439;28;20711;-86
2022/06/04 06:19:41;;;;;;;2.33;1.60;;;25.10;50.90;;;;;;5027235;28;20180;-86
2022/06/04 06:22:07;;;;;;;2.50;1.67;;;25.10;50.90;;;;;;5027621;28;20180;-86
2022/06/04 06:24:33;;;;;;;1.70;1.40;;;25.10;50.90;;;;;;5026262;28;20176;-86
2022/06/04 06:27:00;;;;;;;1.93;1.70;;;25.10;51.50;;;;;;5028007;28;20215;-85
2022/06/04 06:29:28;;;;;;;1.70;1.53;;;25.10;50.90;;;;;;5027500;28;20176;-86
2022/06/04 06:31:56;;;;;;;3.63;1.80;;;25.10;50.90;;;;;;5027537;28;20766;-86
2022/06/04 06:34:22;;;;;;;2.13;1.50;;;25.10;51.00;;;;;;5025830;28;20431;-86
2022/06/04 06:36:48;;;;;;;1.80;1.50;;;25.10;50.90;;;;;;5034750;28;20517;-86
2022/06/04 06:39:14;;;;;;;1.60;1.50;;;25.10;50.90;;;;;;5047026;28;20458;-86
2022/06/04 06:41:40;;;;;;;2.20;1.50;;;25.10;50.90;;;;;;5047560;28;20497;-86
2022/06/04 06:44:06;;;;;;;2.40;1.63;;;25.10;50.90;;;;;;5047004;28;20410;-86
2022/06/04 06:46:36;;;;;;;5.20;1.70;;;25.10;50.90;;;;;;5046116;28;20418;-86
2022/06/04 06:49:19;;;;;;;2.40;1.80;;;25.10;50.90;;;;;;5045983;28;20422;-85
2022/06/04 06:51:59;;;;;;;1.70;1.40;;;25.10;50.90;;;;;;5035158;28;20455;-86
2022/06/04 06:54:28;;;;;;;2.60;1.60;;;25.10;51.60;;;;;;5027794;28;20400;-86
2022/06/04 06:56:56;;;;;;;2.30;1.60;;;25.10;51.00;;;;;;5026084;28;20419;-86
2022/06/04 06:59:23;;;;;;;1.73;1.40;;;25.10;51.00;;;;;;5026784;28;20457;-86
2022/06/04 07:01:49;;;;;;;2.13;1.80;;;25.10;51.00;;;;;;5027362;28;20447;-86
2022/06/04 07:04:16;;;;;;;1.40;1.23;;;25.10;51.00;;;;;;5026871;28;20426;-85
2022/06/04 07:06:44;;;;;;;2.07;1.40;;;25.10;51.00;;;;;;5027019;28;20427;-86
2022/06/04 07:09:21;;;;;;;2.67;1.60;;;25.10;51.00;;;;;;5027446;28;20471;-86
2022/06/04 07:11:47;;;;;;;1.57;1.47;;;25.10;51.00;;;;;;5026947;28;20419;-86
2022/06/04 07:14:13;;;;;;;2.40;1.63;;;25.10;51.00;;;;;;5024612;28;20528;-86
2022/06/04 07:16:40;;;;;;;2.07;1.87;;;25.10;51.00;;;;;;5025895;28;20451;-85
2022/06/04 07:19:06;;;;;;;2.17;1.87;;;25.10;51.00;;;;;;5025642;28;20980;-86
2022/06/04 07:21:32;;;;;;;1.77;1.60;;;25.10;51.00;;;;;;5025435;28;20419;-86
2022/06/04 07:23:58;;;;;;;1.67;1.57;;;25.10;51.00;;;;;;5042222;28;20259;-86
2022/06/04 07:26:25;;;;;;;1.70;1.40;;;25.10;51.00;;;;;;5009876;28;20443;-86
2022/06/04 07:28:51;;;;;;;3.00;2.67;;;25.10;51.00;;;;;;5009346;28;20909;-86
2022/06/04 07:31:17;;;;;;;1.93;1.60;;;25.10;51.00;;;;;;5025248;28;20431;-86
2022/06/04 07:33:45;;;;;;;2.57;1.90;;;25.10;51.00;;;;;;5008197;28;20626;-86
2022/06/04 07:36:16;;;;;;;1.40;1.30;;;25.10;51.00;;;;;;5045252;28;20215;-86
2022/06/04 07:38:43;;;;;;;1.70;1.60;;;25.10;51.00;;;;;;5008304;28;20487;-86
2022/06/04 07:41:35;;;;;;;1.97;1.77;;;25.10;51.00;;;;;;5025111;28;20549;-86
2022/06/04 07:44:02;;;;;;;2.30;1.50;;;25.10;51.00;;;;;;5025525;28;20829;-86
2022/06/04 07:46:30;;;;;;;1.70;1.60;;;25.10;51.00;;;;;;5025249;28;20419;-86
2022/06/04 07:48:58;;;;;;;1.50;1.40;;;25.10;51.00;;;;;;5008428;28;20494;-87
2022/06/04 07:51:24;;;;;;;2.37;1.60;;;25.10;51.00;;;;;;5025868;28;20426;-86
2022/06/04 07:53:51;;;;;;;2.00;1.70;;;25.10;51.00;;;;;;5006824;28;20424;-86
2022/06/04 07:56:19;;;;;;;2.80;1.73;;;25.10;51.00;;;;;;5022321;28;20519;-86
2022/06/04 07:58:45;;;;;;;2.17;1.60;;;25.10;51.00;;;;;;5025589;28;20218;-86
2022/06/04 08:01:14;;;;;;;1.53;1.43;;;25.10;51.00;;;;;;5025244;28;20434;-86
2022/06/04 08:03:41;;;;;;;2.17;1.60;;;25.20;51.10;;;;;;5024451;28;20423;-85
2022/06/04 08:06:08;;;;;;;1.50;1.30;;;25.10;51.10;;;;;;5005984;28;20443;-86
2022/06/04 08:08:34;;;;;;;1.40;1.30;;;25.10;51.00;;;;;;5012104;28;20426;-86
2022/06/04 08:11:01;;;;;;;6.53;1.80;;;25.10;51.10;;;;;;5026478;28;20447;-86
2022/06/04 08:13:30;;;;;;;3.67;1.80;;;25.20;51.10;;;;;;5026310;28;20412;-86
2022/06/04 08:16:00;;;;;;;1.97;1.50;;;25.20;51.10;;;;;;5026261;28;20418;-86
2022/06/04 08:18:26;;;;;;;2.17;1.80;;;25.20;51.10;;;;;;5025665;28;20435;-86
2022/06/04 08:20:55;;;;;;;1.90;1.50;;;25.10;51.10;;;;;;5024212;28;20431;-86
2022/06/04 08:23:21;;;;;;;1.40;1.30;;;25.10;51.10;;;;;;5038382;28;20463;-86
2022/06/04 08:25:50;;;;;;;2.17;1.87;;;25.10;51.10;;;;;;5007242;28;20435;-86
2022/06/04 08:28:17;;;;;;;1.63;1.53;;;25.10;51.10;;;;;;5022481;28;20911;-88
2022/06/04 08:30:44;;;;;;;2.00;1.60;;;25.10;51.10;;;;;;5005483;28;20439;-86
2022/06/04 08:33:11;;;;;;;2.57;1.53;;;25.20;51.20;;;;;;5022052;28;20443;-88
2022/06/04 08:35:37;;;;;;;1.70;1.50;;;25.20;51.20;;;;;;5007323;28;20770;-86
2022/06/04 08:38:03;;;;;;;2.13;1.50;;;25.20;51.20;;;;;;5005608;28;20460;-86
2022/06/04 08:40:45;;;;;;;1.63;1.53;;;25.20;51.20;;;;;;5022645;28;20215;-86
2022/06/04 08:43:20;;;;;;;1.70;1.60;;;25.20;51.20;;;;;;5026300;28;20203;-85
2022/06/04 08:45:46;;;;;;;1.53;1.43;;;25.20;51.20;;;;;;5024975;28;20426;-85
2022/06/04 08:48:37;;;;;;;1.90;1.60;;;25.10;51.10;;;;;;5025834;28;20422;-85
2022/06/04 08:51:09;;;;;;;2.10;1.80;;;25.20;51.20;;;;;;5026577;28;20165;-86
2022/06/04 08:53:34;;;;;;;3.20;1.60;;;25.20;51.20;;;;;;5029259;28;20411;-85
2022/06/04 08:58:58;;;;;;;2.43;1.57;;;25.10;51.10;;;;;;5029013;28;20199;-85
2022/06/04 09:01:38;;;;;;;2.07;1.53;;;25.10;51.10;;;;;;5044025;28;20426;-86
2022/06/04 09:04:14;;;;;;;2.00;1.50;;;25.20;51.20;;;;;;5027969;28;20430;-85
2022/06/04 09:07:08;;;;;;;1.60;1.50;;;25.10;51.10;;;;;;5028062;28;20455;-86
2022/06/04 09:09:48;;;;;;;1.50;1.20;;;25.10;51.10;;;;;;5035330;28;20487;-85
2022/06/04 09:12:32;;;;;;;2.00;1.50;;;25.10;51.20;;;;;;5063978;28;20414;-85
2022/06/04 09:15:21;;;;;;;1.70;1.50;;;25.20;51.20;;;;;;5064870;28;20474;-86
2022/06/04 09:17:56;;;;;;;2.90;2.07;;;25.10;51.20;;;;;;5042872;28;20485;-86
2022/06/04 09:20:39;;;;;;;2.40;1.37;;;25.10;51.20;;;;;;5029215;28;20418;-85
2022/06/04 09:23:26;;;;;;;1.60;1.50;;;25.10;51.30;;;;;;5019070;28;20431;-85
2022/06/04 09:25:58;;;;;;;1.73;1.33;;;25.20;51.40;;;;;;5054852;28;20447;-85
2022/06/04 09:28:30;;;;;;;3.10;1.70;;;25.10;51.30;;;;;;5029194;28;20450;-86
2022/06/04 09:37:26;;;;;;;2.03;1.50;;;25.20;51.50;;;;;;5035753;28;20990;-85
2022/06/04 09:40:07;;;;;;;2.33;1.30;;;25.10;51.50;;;;;;5030200;28;20498;-85
2022/06/04 09:42:32;;;;;;;4.27;1.60;;;25.10;51.50;;;;;;5023205;28;20210;-86
2022/06/04 09:45:01;;;;;;;1.53;1.43;;;25.20;51.60;;;;;;5029005;28;20427;-86
2022/06/04 09:47:41;;;;;;;1.90;1.30;;;25.20;51.60;;;;;;5028819;28;20210;-85
2022/06/04 09:50:25;;;;;;;1.57;1.40;;;25.20;51.60;;;;;;5029358;28;20415;-86
2022/06/04 09:53:03;;;;;;;1.87;1.23;;;25.20;51.50;;;;;;5061576;28;20414;-85
2022/06/04 09:55:32;;;;;;;2.00;1.27;;;25.30;51.60;;;;;;5045702;28;20423;-85
2022/06/04 09:58:17;;;;;;;1.97;1.60;;;25.20;51.60;;;;;;5027648;28;20455;-85
2022/06/04 10:00:56;;;;;;;2.10;1.70;;;25.30;51.60;;;;;;5023336;28;20427;-85
2022/06/04 10:03:22;;;;;;;1.50;1.37;;;25.30;51.60;;;;;;5028568;28;20395;-85
2022/06/04 10:06:01;;;;;;;1.80;1.70;;;25.30;51.60;;;;;;5029316;28;20434;-85
2022/06/04 10:08:29;;;;;;;2.03;1.63;;;25.30;51.60;;;;;;5029070;28;20418;-85
2022/06/04 10:11:04;;;;;;;4.30;1.60;;;25.30;51.60;;;;;;5029884;28;20415;-86
2022/06/04 10:13:48;;;;;;;2.00;1.40;;;25.30;51.60;;;;;;5044220;28;20430;-85
2022/06/04 10:16:29;;;;;;;1.93;1.27;;;25.30;51.60;;;;;;5029755;28;20465;-85
2022/06/04 10:19:04;;;;;;;1.97;1.63;;;25.30;51.60;;;;;;5028869;28;20501;-85
2022/06/04 10:21:41;;;;;;;1.53;1.43;;;25.30;51.60;;;;;;5028690;28;20461;-86
2022/06/04 10:24:29;;;;;;;2.90;1.60;;;25.30;51.60;;;;;;5030066;28;20434;-85
2022/06/04 10:27:15;;;;;;;3.80;1.60;;;25.40;51.60;;;;;;5022017;28;20438;-85
2022/06/04 10:30:02;;;;;;;2.70;1.77;;;25.30;51.60;;;;;;5029673;28;20436;-85
2022/06/04 10:32:51;;;;;;;2.37;1.60;;;25.30;51.60;;;;;;5045469;28;20419;-84
2022/06/04 10:35:29;;;;;;;1.37;1.27;;;25.40;51.70;;;;;;5030252;28;20479;-85
2022/06/04 10:38:31;;;;;;;1.47;1.20;;;25.30;51.60;;;;;;5027378;28;20467;-85
2022/06/04 10:41:10;;;;;;;2.07;1.50;;;25.30;51.70;;;;;;5025979;28;20502;-85
2022/06/04 10:44:00;;;;;;;1.40;1.30;;;25.40;51.70;;;;;;5022363;28;20410;-85
2022/06/04 10:46:38;;;;;;;1.67;1.53;;;25.40;51.70;;;;;;5027699;28;20404;-85
2022/06/04 10:49:16;;;;;;;1.40;1.30;;;25.30;51.70;;;;;;5042631;28;20513;-85
2022/06/04 10:52:01;;;;;;;2.10;1.60;;;25.40;51.80;;;;;;5040623;28;20430;-87
2022/06/04 10:54:53;;;;;;;1.53;1.40;;;25.40;51.80;;;;;;5058307;28;20435;-85
2022/06/04 10:57:36;;;;;;;2.00;1.50;;;25.40;51.70;;;;;;5027405;28;20403;-85
2022/06/04 11:00:22;;;;;;;1.67;1.57;;;25.40;51.80;;;;;;5027767;28;20420;-85
2022/06/04 11:03:43;;;;;;;1.97;1.77;;;25.40;51.80;;;;;;5023608;28;20757;-85
2022/06/04 11:06:23;;;;;;;1.67;1.57;;;25.40;51.70;;;;;;5014538;28;20423;-85
2022/06/04 11:08:59;;;;;;;1.77;1.63;;;25.40;51.80;;;;;;5024144;28;20451;-85
2022/06/04 11:11:49;;;;;;;3.43;1.70;;;25.40;51.80;;;;;;5030390;28;20498;-86
2022/06/04 11:14:45;;;;;;;1.63;1.50;;;25.40;51.70;;;;;;5029777;28;20423;-85
2022/06/04 11:17:28;;;;;;;2.10;1.67;;;25.40;51.70;;;;;;5019984;28;20423;-85
2022/06/04 11:20:25;;;;;;;6.83;5.10;;;25.40;51.70;;;;;;5055836;28;20407;-85
2022/06/04 11:23:12;;;;;;;25.57;13.33;;;25.40;51.70;;;;;;5022257;28;20446;-85
2022/06/04 11:25:42;;;;;;;25.90;15.30;;;25.40;51.70;;;;;;5026695;28;20422;-85
2022/06/04 11:28:11;;;;;;;28.07;19.87;;;25.40;51.70;;;;;;5027403;28;20430;-85
2022/06/04 11:31:14;;;;;;;34.83;23.87;;;25.40;51.70;;;;;;5025335;28;20426;-85
2022/06/04 11:33:55;;;;;;;42.80;28.27;;;25.40;51.60;;;;;;5044770;28;20435;-85
2022/06/04 11:36:29;;;;;;;61.07;33.10;;;25.40;51.60;;;;;;5024587;28;20415;-85
2022/06/04 11:39:27;;;;;;;47.70;32.63;;;25.40;51.60;;;;;;5042814;28;20462;-85
2022/06/04 11:42:26;;;;;;;62.43;37.10;;;25.40;51.60;;;;;;5027824;28;20451;-85
2022/06/04 11:44:52;;;;;;;68.50;42.10;;;25.40;51.60;;;;;;5045441;28;20550;-85
2022/06/04 11:47:26;;;;;;;75.13;41.37;;;25.40;51.60;;;;;;5031160;28;20878;-84
2022/06/04 11:50:11;;;;;;;70.37;44.70;;;25.40;51.60;;;;;;5030955;28;20418;-84
2022/06/04 11:53:04;;;;;;;78.07;47.63;;;25.40;51.60;;;;;;5045926;28;20950;-84
2022/06/04 11:55:55;;;;;;;66.53;47.10;;;25.40;51.60;;;;;;5030343;28;20380;-85
2022/06/04 11:58:43;;;;;;;70.17;47.43;;;25.40;51.60;;;;;;5029228;28;20455;-85
2022/06/04 12:01:16;;;;;;;77.70;49.90;;;25.40;51.60;;;;;;5030160;28;20767;-85
2022/06/04 12:03:48;;;;;;;80.70;52.37;;;25.40;51.70;;;;;;5029154;28;20411;-85
2022/06/04 12:06:34;;;;;;;68.87;49.00;;;25.40;51.70;;;;;;5029526;28;20403;-85
2022/06/04 12:09:36;;;;;;;82.27;54.30;;;25.40;51.60;;;;;;5030122;28;20387;-85
2022/06/04 12:12:13;;;;;;;87.40;54.20;;;25.40;51.60;;;;;;5031886;28;20429;-85
2022/06/04 12:14:55;;;;;;;81.43;53.77;;;25.40;51.70;;;;;;5030208;28;20421;-86
2022/06/04 12:17:52;;;;;;;99.73;60.13;;;25.40;51.70;;;;;;5045490;28;20419;-85
2022/06/04 12:26:26;;;;;;;98.37;60.27;;;25.30;51.70;;;;;;5031797;28;20423;-85
2022/06/04 12:28:54;;;;;;;89.23;61.10;;;25.40;51.80;;;;;;5033062;28;20422;-87
2022/06/04 12:31:36;;;;;;;95.93;63.60;;;25.30;51.70;;;;;;5031233;28;20423;-86
2022/06/04 12:34:24;;;;;;;89.07;60.73;;;25.40;51.80;;;;;;5035675;28;20415;-86
2022/06/04 12:36:52;;;;;;;99.23;67.60;;;25.40;51.80;;;;;;5035764;28;20869;-86
2022/06/04 12:39:31;;;;;;;98.47;65.50;;;25.40;51.90;;;;;;5050683;28;20489;-85
2022/06/04 12:42:00;;;;;;;98.27;66.23;;;25.40;52.00;;;;;;5037139;28;20467;-84
2022/06/04 12:44:33;;;;;;;91.30;65.43;;;25.40;52.00;;;;;;5036913;28;20422;-84
2022/06/04 12:47:22;;;;;;;103.20;64.80;;;25.40;52.00;;;;;;5035827;28;20399;-85
2022/06/04 12:50:04;;;;;;;98.50;61.77;;;25.40;52.10;;;;;;5035567;28;20403;-84
2022/06/04 12:52:44;;;;;;;89.53;63.60;;;25.40;52.20;;;;;;5035120;28;20421;-85
2022/06/04 12:55:16;;;;;;;103.37;65.70;;;25.40;52.20;;;;;;5033626;28;20407;-85
2022/06/04 12:57:41;;;;;;;103.00;67.33;;;25.40;52.30;;;;;;5050487;28;20462;-84
2022/06/04 13:00:21;;;;;;;96.50;64.77;;;25.40;52.80;;;;;;5050880;28;20431;-85
2022/06/04 13:03:08;;;;;;;96.50;65.67;;;25.40;52.30;;;;;;5033952;28;20196;-85
2022/06/04 13:05:37;;;;;;;92.10;63.40;;;25.40;52.30;;;;;;5049430;28;20423;-85
2022/06/04 13:08:20;;;;;;;89.60;65.30;;;25.40;52.30;;;;;;5034598;28;20419;-85
2022/06/04 13:11:00;;;;;;;105.30;67.37;;;25.50;52.40;;;;;;5049399;28;20412;-85
2022/06/04 13:13:57;;;;;;;93.43;64.70;;;25.40;52.30;;;;;;5033041;28;20422;-85
2022/06/04 13:16:27;;;;;;;89.40;65.40;;;25.50;52.40;;;;;;5034660;28;20406;-85
2022/06/04 13:19:32;;;;;;;91.63;60.70;;;25.50;52.40;;;;;;5035018;28;20446;-85
2022/06/04 13:21:59;;;;;;;92.77;63.17;;;25.50;52.40;;;;;;5034500;28;20416;-85
2022/06/04 13:24:27;;;;;;;96.43;64.27;;;25.50;52.40;;;;;;5034592;28;20422;-85
2022/06/04 13:27:03;;;;;;;92.30;63.20;;;25.50;52.40;;;;;;5034946;28;20442;-85
2022/06/04 13:29:35;;;;;;;92.50;61.53;;;25.50;52.40;;;;;;5037102;28;20429;-84
2022/06/04 13:32:13;;;;;;;93.57;61.60;;;25.50;52.40;;;;;;5035609;28;20411;-85
2022/06/04 13:34:41;;;;;;;91.80;64.30;;;25.50;52.40;;;;;;5036130;28;20438;-85
2022/06/04 13:37:21;;;;;;;89.37;64.00;;;25.50;52.40;;;;;;5032811;28;20454;-85
2022/06/04 13:39:50;;;;;;;77.40;60.73;;;25.50;52.40;;;;;;5033525;28;20478;-85